Terminal Aerodrome Forecast
Issued by NWS Shreveport, LA

Home | Current Version | Previous Version | Text Only | Print | Product List | Glossary On
Versions: 1 2 3 4 5 6 7 8 9 10 11 12 13 14 15 16 17 18 19 20 21 22 23 24
000
FTUS44 KSHV 160541
TAFMLU
TAF
KMLU 160541Z 1606/1706 VRB04KT P6SM SKC
     FM160900 20006KT P6SM BKN100
     FM161600 21009KT P6SM BKN050
     FM161800 21010G17KT P6SM VCTS BKN100CB
     FM170300 12003KT P6SM OVC250=

USA.gov is the U.S. government's official web portal to all federal, state and local government web resources and services.